Time;durP1;ratioP1;P1;durP2;ratioP2;P2;SDS_P1;SDS_P2;PMS_P1;PMS_P2;Temp;Humidity;BMP_temperature;BMP_pressure;BME280_temperature;BME280_humidity;BME280_pressure;Samples;Min_cycle;Max_cycle;Signal;HPM_P1;HPM_P2
2021/09/30 00:01:42;;;;;;;953.53;796.05;;;;;;;;;;4999918;28;20029;-78
2021/09/30 00:04:08;;;;;;;953.55;791.13;;;;;;;;;;4998105;28;20030;-78
2021/09/30 00:06:34;;;;;;;954.08;789.47;;;;;;;;;;5002150;28;20115;-78
2021/09/30 00:09:00;;;;;;;936.67;746.85;;;;;;;;;;5001950;28;20029;-78
2021/09/30 00:11:28;;;;;;;938.72;750.15;;;;;;;;;;4998204;28;20042;-78
2021/09/30 00:14:04;;;;;;;932.67;726.72;;;;;;;;;;4999249;28;20035;-78
2021/09/30 00:33:33;;;;;;;923.95;694.50;;;;;;;;;;4984641;28;20150;-78
2021/09/30 00:36:15;;;;;;;932.08;715.10;;;;;;;;;;5000850;28;20398;-78
2021/09/30 01:40:24;;;;;;;934.08;724.10;;;;;;;;;;5001957;28;20092;-78
2021/09/30 02:20:23;;;;;;;939.67;738.17;;;;;;;;;;5003417;28;20456;-78
2021/09/30 02:28:10;;;;;;;938.92;738.47;;;;;;;;;;5003556;28;20073;-78
2021/09/30 02:30:56;;;;;;;939.80;742.42;;;;;;;;;;5005944;28;20030;-78
2021/09/30 02:58:09;;;;;;;941.88;748.40;;;;;;;;;;5004116;28;20503;-78
2021/09/30 02:58:36;;;;;;;940.20;747.95;;;;;;;;;;5002701;28;20112;-79
2021/09/30 03:01:19;;;;;;;939.88;747.67;;;;;;;;;;4998793;28;20149;-79
2021/09/30 03:03:46;;;;;;;936.75;739.78;;;;;;;;;;5001634;28;20423;-80
2021/09/30 03:06:12;;;;;;;937.22;748.35;;;;;;;;;;5004080;28;20072;-78
2021/09/30 03:08:47;;;;;;;936.42;743.55;;;;;;;;;;5002429;28;20026;-78
2021/09/30 03:11:13;;;;;;;942.92;762.28;;;;;;;;;;5000925;28;20368;-78
2021/09/30 03:13:41;;;;;;;941.90;755.22;;;;;;;;;;5004086;28;20428;-79
2021/09/30 03:16:16;;;;;;;943.90;759.63;;;;;;;;;;5002504;28;20032;-78
2021/09/30 03:23:41;;;;;;;945.15;759.35;;;;;;;;;;5000966;28;20042;-81
2021/09/30 03:26:07;;;;;;;930.45;718.00;;;;;;;;;;5002615;28;20569;-81
2021/09/30 03:28:33;;;;;;;942.00;759.53;;;;;;;;;;5018703;28;20022;-81
2021/09/30 03:31:01;;;;;;;946.28;773.60;;;;;;;;;;5003478;28;20079;-82
2021/09/30 03:33:27;;;;;;;946.10;774.47;;;;;;;;;;5002275;28;20374;-82
2021/09/30 03:35:53;;;;;;;943.47;764.33;;;;;;;;;;5003903;28;21047;-80
2021/09/30 03:38:20;;;;;;;944.60;763.78;;;;;;;;;;5003801;28;20398;-79
2021/09/30 03:40:46;;;;;;;945.05;767.72;;;;;;;;;;5003654;28;20180;-79
2021/09/30 03:43:12;;;;;;;941.38;761.08;;;;;;;;;;5002843;28;20112;-79
2021/09/30 03:45:38;;;;;;;944.13;766.90;;;;;;;;;;5004530;28;20161;-78
2021/09/30 03:48:05;;;;;;;944.38;773.22;;;;;;;;;;5002150;28;20386;-78
2021/09/30 03:53:15;;;;;;;938.47;751.60;;;;;;;;;;5000062;28;20029;-79
2021/09/30 03:55:58;;;;;;;941.80;756.80;;;;;;;;;;5004730;28;20410;-78
2021/09/30 04:01:09;;;;;;;938.03;732.60;;;;;;;;;;5002874;28;20048;-78
2021/09/30 04:03:35;;;;;;;941.00;747.70;;;;;;;;;;4997779;28;20056;-78
2021/09/30 04:06:02;;;;;;;940.33;745.92;;;;;;;;;;5002660;28;20029;-78
2021/09/30 04:08:28;;;;;;;941.80;747.20;;;;;;;;;;5003268;28;21457;-78
2021/09/30 04:10:54;;;;;;;941.22;751.97;;;;;;;;;;5003360;28;20038;-79
2021/09/30 04:13:20;;;;;;;941.83;757.85;;;;;;;;;;5017070;28;20026;-78
2021/09/30 04:15:49;;;;;;;944.00;766.45;;;;;;;;;;5003071;28;20397;-79
2021/09/30 04:18:15;;;;;;;938.72;743.83;;;;;;;;;;4998420;28;20469;-79
2021/09/30 04:20:41;;;;;;;942.53;768.45;;;;;;;;;;4995715;28;20034;-79
2021/09/30 04:23:07;;;;;;;945.53;771.92;;;;;;;;;;4999824;28;20398;-79
2021/09/30 04:25:33;;;;;;;944.75;783.67;;;;;;;;;;5002316;28;20029;-79
2021/09/30 04:27:59;;;;;;;941.03;772.17;;;;;;;;;;5002719;28;20543;-79
2021/09/30 04:30:25;;;;;;;944.67;781.13;;;;;;;;;;5001173;28;20044;-79
2021/09/30 04:32:52;;;;;;;941.03;777.80;;;;;;;;;;5002053;28;20072;-79
2021/09/30 04:35:18;;;;;;;942.00;770.00;;;;;;;;;;4999758;28;20038;-79
2021/09/30 04:37:44;;;;;;;942.35;768.15;;;;;;;;;;4999320;28;20415;-80
2021/09/30 04:40:10;;;;;;;946.10;769.85;;;;;;;;;;5003520;28;20026;-80
2021/09/30 04:42:36;;;;;;;940.72;759.47;;;;;;;;;;4998426;28;20049;-79
2021/09/30 04:45:03;;;;;;;935.22;746.85;;;;;;;;;;5002279;28;20493;-81
2021/09/30 04:47:29;;;;;;;932.92;748.13;;;;;;;;;;5005292;28;20037;-85
2021/09/30 04:49:55;;;;;;;932.72;741.45;;;;;;;;;;5000383;28;20533;-80
2021/09/30 04:52:21;;;;;;;931.40;741.90;;;;;;;;;;5001600;28;20277;-82
2021/09/30 04:54:48;;;;;;;937.83;742.47;;;;;;;;;;5031085;28;20107;-80
2021/09/30 04:57:14;;;;;;;937.47;756.00;;;;;;;;;;5002584;28;20034;-79
2021/09/30 04:59:40;;;;;;;931.42;750.72;;;;;;;;;;5000059;28;20046;-79
2021/09/30 05:02:07;;;;;;;930.60;747.20;;;;;;;;;;5001763;28;20080;-79
2021/09/30 05:04:32;;;;;;;940.13;767.03;;;;;;;;;;5000774;28;20064;-82
2021/09/30 05:06:59;;;;;;;932.00;753.50;;;;;;;;;;4999243;28;20048;-81
2021/09/30 05:09:26;;;;;;;940.25;767.22;;;;;;;;;;5001942;28;20033;-82
2021/09/30 05:11:55;;;;;;;939.88;761.90;;;;;;;;;;5001589;28;20173;-81
2021/09/30 05:14:21;;;;;;;943.72;768.40;;;;;;;;;;5002192;28;20505;-80
2021/09/30 05:16:49;;;;;;;939.13;762.38;;;;;;;;;;5012029;28;20030;-79
2021/09/30 05:19:17;;;;;;;939.13;756.05;;;;;;;;;;5004262;28;20038;-79
2021/09/30 05:21:43;;;;;;;939.13;753.65;;;;;;;;;;5001322;28;20052;-79
2021/09/30 05:24:09;;;;;;;938.33;758.97;;;;;;;;;;5005798;28;20176;-77
2021/09/30 05:26:35;;;;;;;945.22;763.47;;;;;;;;;;4989841;28;20129;-79
2021/09/30 05:29:19;;;;;;;939.90;757.67;;;;;;;;;;5000992;28;20045;-79
2021/09/30 05:31:45;;;;;;;942.45;758.53;;;;;;;;;;5020034;28;20145;-79
2021/09/30 05:34:11;;;;;;;944.20;762.47;;;;;;;;;;4986741;28;20069;-79
2021/09/30 05:36:37;;;;;;;943.95;768.97;;;;;;;;;;5022204;28;20560;-79
2021/09/30 05:39:03;;;;;;;947.60;780.85;;;;;;;;;;4990529;28;20116;-78
2021/09/30 05:41:32;;;;;;;945.33;767.88;;;;;;;;;;4997327;28;20034;-78
2021/09/30 05:44:09;;;;;;;952.65;791.15;;;;;;;;;;4998666;28;20124;-79
2021/09/30 05:46:46;;;;;;;946.45;779.78;;;;;;;;;;4998369;28;20029;-79
2021/09/30 05:49:12;;;;;;;948.78;781.90;;;;;;;;;;4998033;28;20060;-79
2021/09/30 05:51:39;;;;;;;952.90;793.97;;;;;;;;;;4998267;28;20029;-79
2021/09/30 05:54:05;;;;;;;953.42;786.78;;;;;;;;;;4997047;28;20037;-80
2021/09/30 05:56:32;;;;;;;952.03;783.47;;;;;;;;;;5007495;28;20038;-80
2021/09/30 05:58:57;;;;;;;949.90;792.33;;;;;;;;;;4988327;28;20046;-80
2021/09/30 06:12:36;;;;;;;942.30;754.63;;;;;;;;;;5013245;28;20052;-80
2021/09/30 06:15:26;;;;;;;940.95;744.70;;;;;;;;;;5007998;28;20022;-80
2021/09/30 06:17:55;;;;;;;935.83;735.63;;;;;;;;;;5018564;28;20413;-80
2021/09/30 06:20:21;;;;;;;933.92;737.63;;;;;;;;;;5008245;28;20061;-80
2021/09/30 06:22:47;;;;;;;938.80;744.58;;;;;;;;;;5001480;28;20500;-81
2021/09/30 06:25:13;;;;;;;935.45;743.10;;;;;;;;;;5017519;28;20030;-81
2021/09/30 06:27:39;;;;;;;936.67;738.13;;;;;;;;;;5007035;28;20026;-80
2021/09/30 06:30:05;;;;;;;947.17;749.25;;;;;;;;;;5010717;28;20036;-80
2021/09/30 06:32:31;;;;;;;941.15;743.90;;;;;;;;;;5001651;28;20089;-81
2021/09/30 06:34:57;;;;;;;940.55;743.22;;;;;;;;;;5004263;28;20037;-80
2021/09/30 06:37:23;;;;;;;940.40;750.05;;;;;;;;;;5005247;28;20034;-80
2021/09/30 06:39:49;;;;;;;939.67;744.03;;;;;;;;;;5036722;28;20034;-80
2021/09/30 06:42:15;;;;;;;939.60;747.85;;;;;;;;;;5005011;28;20393;-80
2021/09/30 06:44:41;;;;;;;938.05;747.95;;;;;;;;;;5005010;28;20038;-80
2021/09/30 06:47:07;;;;;;;937.05;749.13;;;;;;;;;;5003472;28;20031;-79
2021/09/30 06:49:33;;;;;;;942.50;765.58;;;;;;;;;;5003681;28;20088;-80
2021/09/30 06:51:59;;;;;;;943.25;770.92;;;;;;;;;;5003090;28;20463;-80
2021/09/30 06:54:26;;;;;;;948.22;783.65;;;;;;;;;;5002410;28;20033;-80
2021/09/30 06:56:52;;;;;;;945.10;777.28;;;;;;;;;;5005209;28;20030;-81
2021/09/30 06:59:23;;;;;;;951.38;794.80;;;;;;;;;;5003867;28;20335;-81
2021/09/30 07:01:49;;;;;;;952.55;799.35;;;;;;;;;;5001896;28;20121;-81
2021/09/30 07:04:15;;;;;;;953.67;796.33;;;;;;;;;;5002776;28;20065;-79
2021/09/30 07:06:41;;;;;;;955.88;809.47;;;;;;;;;;5004259;28;20478;-81
2021/09/30 07:09:07;;;;;;;953.15;810.75;;;;;;;;;;5007488;28;20053;-80
2021/09/30 07:11:33;;;;;;;956.80;815.97;;;;;;;;;;5005235;28;20029;-81
2021/09/30 07:14:00;;;;;;;965.45;830.53;;;;;;;;;;5009564;28;20025;-81
2021/09/30 07:16:26;;;;;;;959.03;827.33;;;;;;;;;;5011597;28;20563;-86
2021/09/30 07:18:52;;;;;;;963.08;839.72;;;;;;;;;;5006455;28;20038;-85
2021/09/30 07:21:19;;;;;;;965.45;852.65;;;;;;;;;;5017347;28;20029;-84
2021/09/30 07:23:45;;;;;;;971.70;861.92;;;;;;;;;;5011612;28;20033;-85
2021/09/30 07:26:13;;;;;;;972.65;863.75;;;;;;;;;;5006574;28;20056;-86
2021/09/30 07:28:39;;;;;;;982.65;874.67;;;;;;;;;;5012142;28;20018;-81
2021/09/30 07:31:05;;;;;;;991.58;883.00;;;;;;;;;;5000162;28;20493;-81
2021/09/30 07:33:32;;;;;;;990.55;882.33;;;;;;;;;;5005118;28;20022;-82
2021/09/30 07:35:58;;;;;;;980.45;872.72;;;;;;;;;;5002041;28;20386;-83
2021/09/30 07:38:25;;;;;;;994.50;885.80;;;;;;;;;;5006721;28;20049;-81
2021/09/30 07:40:51;;;;;;;991.88;883.35;;;;;;;;;;5005049;28;20030;-82
2021/09/30 07:43:17;;;;;;;996.38;887.97;;;;;;;;;;5005548;28;20061;-82
2021/09/30 07:45:43;;;;;;;991.38;883.47;;;;;;;;;;5008567;28;20037;-81
2021/09/30 07:48:09;;;;;;;986.95;878.75;;;;;;;;;;5001280;28;20589;-79
2021/09/30 07:50:37;;;;;;;999.35;890.63;;;;;;;;;;5007943;28;20041;-78
2021/09/30 07:53:04;;;;;;;989.08;880.67;;;;;;;;;;5002029;28;20109;-81
2021/09/30 07:55:30;;;;;;;991.33;883.08;;;;;;;;;;5011583;28;20044;-81
2021/09/30 07:57:56;;;;;;;980.72;872.92;;;;;;;;;;5009459;28;20057;-81
2021/09/30 08:00:34;;;;;;;989.90;881.75;;;;;;;;;;5019827;28;20450;-79
2021/09/30 08:03:01;;;;;;;988.80;880.63;;;;;;;;;;5016947;28;20077;-79
2021/09/30 08:05:27;;;;;;;971.80;864.40;;;;;;;;;;5006970;28;20049;-78
2021/09/30 08:07:53;;;;;;;989.80;881.63;;;;;;;;;;5011816;28;20030;-80
2021/09/30 08:10:19;;;;;;;982.53;874.70;;;;;;;;;;5008933;28;20386;-79
2021/09/30 08:12:45;;;;;;;990.08;881.78;;;;;;;;;;5009258;28;20037;-80
2021/09/30 08:15:12;;;;;;;982.15;874.33;;;;;;;;;;5009655;28;20449;-79
2021/09/30 08:17:38;;;;;;;987.17;879.47;;;;;;;;;;5008979;28;20036;-79
2021/09/30 08:20:05;;;;;;;991.88;882.92;;;;;;;;;;5026214;28;20026;-80
2021/09/30 08:22:31;;;;;;;980.83;873.17;;;;;;;;;;5008643;28;20078;-79
2021/09/30 08:24:57;;;;;;;989.47;881.47;;;;;;;;;;5009062;28;20029;-78
2021/09/30 08:27:23;;;;;;;979.78;872.15;;;;;;;;;;5007143;28;20128;-80
2021/09/30 08:29:49;;;;;;;997.53;889.35;;;;;;;;;;5014868;28;20516;-78
2021/09/30 08:32:15;;;;;;;1004.80;896.28;;;;;;;;;;5007212;28;20029;-78
2021/09/30 08:34:41;;;;;;;1003.60;895.20;;;;;;;;;;5005407;28;20498;-79
2021/09/30 08:37:07;;;;;;;1018.15;909.13;;;;;;;;;;5007537;28;20025;-79
2021/09/30 08:39:33;;;;;;;1021.30;912.10;;;;;;;;;;4999727;28;20080;-80
2021/09/30 08:42:03;;;;;;;1019.28;910.15;;;;;;;;;;5008234;28;20025;-79
2021/09/30 08:44:31;;;;;;;1016.08;907.65;;;;;;;;;;5003764;28;20458;-80
2021/09/30 08:46:57;;;;;;;1023.58;914.92;;;;;;;;;;5009007;28;20032;-80
2021/09/30 08:49:25;;;;;;;1027.43;918.35;;;;;;;;;;5007967;28;20030;-79
2021/09/30 08:51:51;;;;;;;1022.55;913.75;;;;;;;;;;5002338;28;20105;-80
2021/09/30 08:54:17;;;;;;;1028.85;919.65;;;;;;;;;;5007715;28;20062;-78
2021/09/30 08:56:43;;;;;;;1031.18;921.88;;;;;;;;;;5007890;28;20893;-80
2021/09/30 08:59:13;;;;;;;1031.22;921.42;;;;;;;;;;5007971;28;20054;-77
2021/09/30 09:01:39;;;;;;;1029.68;920.50;;;;;;;;;;5009644;28;20058;-80
2021/09/30 09:04:16;;;;;;;1033.93;924.72;;;;;;;;;;5005980;28;20066;-80
2021/09/30 09:06:47;;;;;;;1033.13;923.83;;;;;;;;;;5007497;28;20533;-80
2021/09/30 09:09:23;;;;;;;1040.40;930.53;;;;;;;;;;5011186;28;20022;-81
2021/09/30 09:11:50;;;;;;;1037.53;927.58;;;;;;;;;;5008716;28;20038;-80
2021/09/30 09:14:23;;;;;;;1038.40;928.42;;;;;;;;;;5006813;28;20426;-80
2021/09/30 09:17:05;;;;;;;1050.32;940.20;;;;;;;;;;5013601;28;20022;-81
2021/09/30 09:19:36;;;;;;;1046.97;936.90;;;;;;;;;;5044915;28;20048;-79
2021/09/30 09:22:16;;;;;;;1043.85;933.95;;;;;;;;;;5011924;28;20112;-80
2021/09/30 09:25:15;;;;;;;1038.50;929.53;;;;;;;;;;5010804;28;20316;-79
2021/09/30 09:27:46;;;;;;;1036.65;927.78;;;;;;;;;;4963282;28;20038;-77
2021/09/30 09:30:27;;;;;;;1032.95;924.25;;;;;;;;;;5008873;28;20109;-77
2021/09/30 09:33:13;;;;;;;1042.63;933.47;;;;;;;;;;5003432;28;20040;-80
2021/09/30 09:35:46;;;;;;;1039.90;930.78;;;;;;;;;;5010223;28;20736;-81
2021/09/30 09:38:12;;;;;;;1066.55;956.25;;;;;;;;;;5013517;28;20088;-77
2021/09/30 09:40:39;;;;;;;1063.53;953.28;;;;;;;;;;5009026;28;20091;-77
2021/09/30 09:43:24;;;;;;;1064.55;954.00;;;;;;;;;;5010105;28;20325;-76
2021/09/30 09:45:49;;;;;;;1053.50;943.97;;;;;;;;;;5007549;28;20030;-78
2021/09/30 09:48:16;;;;;;;1066.93;956.25;;;;;;;;;;5009417;28;20026;-78
2021/09/30 09:50:42;;;;;;;1064.90;955.08;;;;;;;;;;4997141;28;20022;-79
2021/09/30 09:53:09;;;;;;;1061.50;951.72;;;;;;;;;;5007720;28;20115;-77
2021/09/30 09:55:36;;;;;;;1060.07;950.47;;;;;;;;;;5007372;28;20030;-80
2021/09/30 09:58:03;;;;;;;1048.75;939.70;;;;;;;;;;5010007;28;20049;-76
2021/09/30 10:00:29;;;;;;;1051.72;942.75;;;;;;;;;;5005550;28;20489;-78
2021/09/30 10:02:56;;;;;;;1051.07;941.63;;;;;;;;;;5010355;28;20485;-78
2021/09/30 10:05:23;;;;;;;1060.40;950.90;;;;;;;;;;5008007;28;20041;-76
2021/09/30 10:07:50;;;;;;;1046.75;937.92;;;;;;;;;;5011805;28;20021;-77
2021/09/30 10:10:16;;;;;;;1049.30;940.72;;;;;;;;;;5010873;28;20041;-79
2021/09/30 10:12:48;;;;;;;1058.07;949.15;;;;;;;;;;5011718;28;20028;-77
2021/09/30 10:15:14;;;;;;;1052.93;944.22;;;;;;;;;;5006019;28;20017;-77
2021/09/30 10:17:40;;;;;;;1056.68;947.72;;;;;;;;;;5007621;28;20527;-77
2021/09/30 10:20:08;;;;;;;1046.47;937.78;;;;;;;;;;5006560;28;20022;-77
2021/09/30 10:22:34;;;;;;;1048.25;939.38;;;;;;;;;;4999481;28;20022;-77
2021/09/30 10:25:00;;;;;;;1058.97;949.70;;;;;;;;;;5008907;28;20112;-76
2021/09/30 10:27:26;;;;;;;1051.43;942.67;;;;;;;;;;5009310;28;20029;-79
2021/09/30 10:29:54;;;;;;;1067.55;958.03;;;;;;;;;;4999761;28;20466;-78
2021/09/30 10:32:22;;;;;;;1061.85;952.72;;;;;;;;;;5010099;28;20022;-78
2021/09/30 10:35:03;;;;;;;1063.05;954.25;;;;;;;;;;5007001;28;20033;-78
2021/09/30 10:37:31;;;;;;;1064.97;955.63;;;;;;;;;;5010737;28;20485;-78
2021/09/30 10:40:15;;;;;;;1067.30;957.83;;;;;;;;;;5009953;28;20021;-77
2021/09/30 10:42:41;;;;;;;1072.25;962.70;;;;;;;;;;5008854;28;20026;-78
2021/09/30 10:45:13;;;;;;;1072.15;962.00;;;;;;;;;;5006551;28;20041;-77
2021/09/30 10:47:39;;;;;;;1076.22;964.83;;;;;;;;;;5008933;28;20038;-76
2021/09/30 10:50:05;;;;;;;1072.28;961.58;;;;;;;;;;5010489;28;20023;-78
2021/09/30 10:52:32;;;;;;;1073.25;963.60;;;;;;;;;;5009261;28;20030;-77
2021/09/30 10:55:06;;;;;;;1081.68;971.78;;;;;;;;;;5011324;28;20093;-77
2021/09/30 10:57:36;;;;;;;1075.63;965.42;;;;;;;;;;5012174;28;20365;-79
2021/09/30 11:00:04;;;;;;;1074.55;965.00;;;;;;;;;;5010373;28;20046;-78
2021/09/30 11:02:30;;;;;;;1068.57;958.60;;;;;;;;;;5009670;28;20046;-77
2021/09/30 11:05:10;;;;;;;1076.10;966.10;;;;;;;;;;5001441;28;20100;-78
2021/09/30 11:07:40;;;;;;;1073.75;963.80;;;;;;;;;;5009674;28;20351;-76
2021/09/30 11:10:15;;;;;;;1076.60;966.85;;;;;;;;;;5007321;28;20133;-79
2021/09/30 11:13:01;;;;;;;1083.88;974.05;;;;;;;;;;4998969;28;20084;-77
2021/09/30 11:15:46;;;;;;;1080.20;970.22;;;;;;;;;;5000390;28;20441;-77
2021/09/30 11:18:30;;;;;;;1066.78;957.40;;;;;;;;;;5025861;28;20052;-76
2021/09/30 11:20:56;;;;;;;1066.72;957.13;;;;;;;;;;4996183;28;20030;-76
2021/09/30 11:23:48;;;;;;;1072.50;962.80;;;;;;;;;;4998086;28;20124;-76
2021/09/30 11:26:14;;;;;;;1064.93;955.33;;;;;;;;;;4993742;28;20147;-76
2021/09/30 11:28:40;;;;;;;1074.97;965.08;;;;;;;;;;4997830;28;20113;-77
2021/09/30 11:31:23;;;;;;;1074.72;964.65;;;;;;;;;;5010316;28;20014;-76
2021/09/30 11:33:51;;;;;;;1064.50;954.80;;;;;;;;;;5016064;28;20022;-76
2021/09/30 11:36:17;;;;;;;1073.38;963.65;;;;;;;;;;5010778;28;20048;-78
2021/09/30 11:38:43;;;;;;;1067.45;957.80;;;;;;;;;;5009673;28;20038;-78
2021/09/30 11:41:10;;;;;;;1077.55;967.42;;;;;;;;;;5004625;28;20050;-76
2021/09/30 11:43:36;;;;;;;1067.93;957.70;;;;;;;;;;5004568;28;20030;-76
2021/09/30 11:46:21;;;;;;;1075.43;965.55;;;;;;;;;;5014596;28;20026;-76
2021/09/30 11:48:57;;;;;;;1068.57;958.42;;;;;;;;;;5009418;28;20030;-79
2021/09/30 11:51:33;;;;;;;1062.07;952.60;;;;;;;;;;5008414;28;20378;-77
2021/09/30 11:54:01;;;;;;;1064.97;955.42;;;;;;;;;;5017138;28;20674;-78
2021/09/30 11:56:28;;;;;;;1069.85;959.92;;;;;;;;;;5005339;28;20032;-78
2021/09/30 11:59:05;;;;;;;1066.70;956.92;;;;;;;;;;5003762;28;20057;-75
2021/09/30 12:01:42;;;;;;;1067.07;957.10;;;;;;;;;;5014712;28;20520;-77
2021/09/30 12:04:09;;;;;;;1060.85;951.20;;;;;;;;;;5015569;28;20152;-77
2021/09/30 12:06:42;;;;;;;1059.55;950.13;;;;;;;;;;5007819;28;20109;-76
2021/09/30 12:09:08;;;;;;;1058.50;949.13;;;;;;;;;;5005630;28;20033;-76
2021/09/30 12:11:36;;;;;;;1065.30;955.53;;;;;;;;;;5008049;28;20510;-77
2021/09/30 12:14:03;;;;;;;1063.22;953.88;;;;;;;;;;5006991;28;20018;-77
2021/09/30 12:16:29;;;;;;;1065.05;955.38;;;;;;;;;;5007336;28;20027;-77
2021/09/30 12:19:02;;;;;;;1074.68;964.50;;;;;;;;;;5004561;28;20043;-74
2021/09/30 12:21:39;;;;;;;1068.43;958.80;;;;;;;;;;5001707;28;20037;-76
2021/09/30 12:24:05;;;;;;;1061.93;951.22;;;;;;;;;;5007256;28;20057;-76
2021/09/30 12:26:32;;;;;;;1066.63;956.65;;;;;;;;;;5009715;28;20514;-78
2021/09/30 12:28:59;;;;;;;1066.15;956.22;;;;;;;;;;5006377;28;20025;-77
2021/09/30 12:31:25;;;;;;;1068.60;958.35;;;;;;;;;;5006321;28;20037;-78
2021/09/30 12:33:52;;;;;;;1062.38;952.35;;;;;;;;;;5000795;28;20032;-77
2021/09/30 12:36:18;;;;;;;1069.72;959.13;;;;;;;;;;5002581;28;20065;-77
2021/09/30 12:38:58;;;;;;;1073.57;963.03;;;;;;;;;;5000683;28;20072;-76
2021/09/30 12:41:24;;;;;;;1071.20;961.33;;;;;;;;;;5024700;28;20069;-76
2021/09/30 12:43:50;;;;;;;1068.32;958.75;;;;;;;;;;5008200;28;20041;-76
2021/09/30 12:46:19;;;;;;;1070.22;960.55;;;;;;;;;;5005863;28;20042;-76
2021/09/30 12:48:49;;;;;;;1056.38;947.08;;;;;;;;;;5006410;28;20752;-77
2021/09/30 12:51:22;;;;;;;1055.83;946.63;;;;;;;;;;5014713;28;20426;-76
2021/09/30 12:53:50;;;;;;;1053.50;944.25;;;;;;;;;;5001854;28;20269;-77
2021/09/30 12:56:19;;;;;;;1050.63;941.50;;;;;;;;;;5011538;28;20129;-76
2021/09/30 12:58:47;;;;;;;1043.35;934.88;;;;;;;;;;4997407;28;20050;-75
2021/09/30 13:01:22;;;;;;;1043.10;934.53;;;;;;;;;;5002667;28;20028;-77
2021/09/30 13:04:07;;;;;;;1048.53;939.58;;;;;;;;;;5005973;28;20167;-76
2021/09/30 13:06:33;;;;;;;1049.22;939.88;;;;;;;;;;5000070;28;20034;-75
2021/09/30 13:08:59;;;;;;;1053.70;944.88;;;;;;;;;;4999806;28;20621;-79
2021/09/30 13:11:29;;;;;;;1063.25;954.08;;;;;;;;;;4994591;28;20109;-76
2021/09/30 13:14:14;;;;;;;1067.95;958.40;;;;;;;;;;4996389;28;20037;-76
2021/09/30 13:16:41;;;;;;;1062.20;952.38;;;;;;;;;;4994198;28;20650;-77
2021/09/30 13:19:08;;;;;;;1064.18;954.60;;;;;;;;;;4996525;28;20031;-75
2021/09/30 13:21:52;;;;;;;1060.38;950.92;;;;;;;;;;4993370;28;20081;-76
2021/09/30 13:24:18;;;;;;;1057.40;948.13;;;;;;;;;;4996064;28;20553;-76
2021/09/30 13:26:45;;;;;;;1060.93;950.83;;;;;;;;;;4997650;28;20038;-74
2021/09/30 13:29:11;;;;;;;1066.07;956.20;;;;;;;;;;4999091;28;20022;-76
2021/09/30 13:31:38;;;;;;;1057.78;948.28;;;;;;;;;;4999095;28;20044;-75
2021/09/30 13:34:04;;;;;;;1050.70;941.42;;;;;;;;;;4995744;28;20034;-76
2021/09/30 13:36:32;;;;;;;1052.15;942.67;;;;;;;;;;5003756;28;20037;-78
2021/09/30 13:38:58;;;;;;;1061.45;951.47;;;;;;;;;;4993550;28;20029;-76
2021/09/30 13:41:24;;;;;;;1055.88;946.05;;;;;;;;;;5002428;28;20038;-75
2021/09/30 13:43:51;;;;;;;1062.72;952.35;;;;;;;;;;5001175;28;20088;-78
2021/09/30 13:46:17;;;;;;;1051.63;942.05;;;;;;;;;;4997780;28;20044;-76
2021/09/30 13:48:43;;;;;;;1061.57;951.58;;;;;;;;;;4999296;28;20052;-76
2021/09/30 13:51:09;;;;;;;1065.35;955.10;;;;;;;;;;4991931;28;20030;-75
2021/09/30 13:53:35;;;;;;;1056.65;947.00;;;;;;;;;;4995647;28;20030;-76
2021/09/30 13:56:01;;;;;;;1049.97;940.55;;;;;;;;;;5010825;28;20482;-76
2021/09/30 13:58:27;;;;;;;1050.70;941.45;;;;;;;;;;5001870;28;20132;-76
2021/09/30 14:00:53;;;;;;;1048.55;938.95;;;;;;;;;;5013118;28;20025;-76
2021/09/30 14:03:19;;;;;;;1047.32;938.20;;;;;;;;;;5003052;28;20031;-76
2021/09/30 14:05:45;;;;;;;1059.20;949.30;;;;;;;;;;5004068;28;20040;-78
2021/09/30 14:08:12;;;;;;;1055.13;945.42;;;;;;;;;;5003707;28;20026;-76
2021/09/30 14:10:39;;;;;;;1048.32;938.72;;;;;;;;;;5003776;28;20033;-77
2021/09/30 14:13:05;;;;;;;1047.30;937.83;;;;;;;;;;5012322;28;20213;-77
2021/09/30 14:15:33;;;;;;;1052.68;942.88;;;;;;;;;;5016016;28;20090;-78
2021/09/30 14:17:59;;;;;;;1052.20;942.45;;;;;;;;;;5014589;28;20065;-76
2021/09/30 14:20:25;;;;;;;1053.65;943.70;;;;;;;;;;5020537;28;20039;-77
2021/09/30 14:22:51;;;;;;;1054.90;945.13;;;;;;;;;;5017871;28;20033;-77
2021/09/30 14:25:17;;;;;;;1055.70;945.95;;;;;;;;;;5015251;28;20219;-76
2021/09/30 14:27:43;;;;;;;1047.78;938.85;;;;;;;;;;5007472;28;20109;-76
2021/09/30 14:30:09;;;;;;;1049.88;940.60;;;;;;;;;;5009224;28;20018;-76
2021/09/30 14:32:35;;;;;;;1049.28;939.70;;;;;;;;;;5010451;28;20030;-76
2021/09/30 14:35:02;;;;;;;1044.82;935.35;;;;;;;;;;5017449;28;20022;-77
2021/09/30 14:37:28;;;;;;;1045.53;936.55;;;;;;;;;;5007273;28;20034;-76
2021/09/30 14:39:54;;;;;;;1036.78;928.05;;;;;;;;;;5008336;28;20490;-77
2021/09/30 14:42:20;;;;;;;1047.15;938.03;;;;;;;;;;5012608;28;20033;-76
2021/09/30 14:44:47;;;;;;;1040.43;931.58;;;;;;;;;;5017580;28;20404;-77
2021/09/30 14:47:13;;;;;;;1043.78;935.10;;;;;;;;;;5010460;28;20119;-75
2021/09/30 14:49:39;;;;;;;1036.95;928.40;;;;;;;;;;5019098;28;20436;-76
2021/09/30 14:52:12;;;;;;;1041.30;932.42;;;;;;;;;;5010584;28;20038;-76
2021/09/30 14:54:39;;;;;;;1035.03;926.45;;;;;;;;;;5019670;28;20508;-77
2021/09/30 14:57:05;;;;;;;1037.68;929.22;;;;;;;;;;5004571;28;20039;-78
2021/09/30 14:59:31;;;;;;;1042.13;932.90;;;;;;;;;;5011124;28;20121;-76
2021/09/30 15:01:59;;;;;;;1042.00;933.28;;;;;;;;;;5001221;28;20148;-76
2021/09/30 15:04:25;;;;;;;1047.05;938.03;;;;;;;;;;5000082;28;20425;-76
2021/09/30 15:06:51;;;;;;;1028.20;919.88;;;;;;;;;;5020571;28;20109;-77
2021/09/30 15:09:17;;;;;;;1034.80;926.05;;;;;;;;;;5005848;28;20114;-77
2021/09/30 15:11:43;;;;;;;1033.85;925.10;;;;;;;;;;5009394;28;20101;-77
2021/09/30 15:14:11;;;;;;;1038.22;928.83;;;;;;;;;;5013859;28;20030;-77
2021/09/30 15:16:43;;;;;;;1033.97;925.10;;;;;;;;;;5019640;28;20473;-77
2021/09/30 15:19:17;;;;;;;1039.18;929.75;;;;;;;;;;5012561;28;20404;-76
2021/09/30 15:21:43;;;;;;;1043.97;934.22;;;;;;;;;;4999576;28;20109;-76
2021/09/30 15:24:10;;;;;;;1030.18;921.15;;;;;;;;;;5005360;28;20026;-78
2021/09/30 15:26:36;;;;;;;1033.25;923.90;;;;;;;;;;5008037;28;20030;-76
2021/09/30 15:29:03;;;;;;;1033.03;923.45;;;;;;;;;;5013356;28;20091;-78
2021/09/30 15:31:30;;;;;;;1029.82;920.63;;;;;;;;;;5045653;28;20029;-76
2021/09/30 15:33:58;;;;;;;1034.47;925.30;;;;;;;;;;5010826;28;20442;-76
2021/09/30 15:36:24;;;;;;;1030.68;921.50;;;;;;;;;;5009998;28;20037;-76
2021/09/30 15:38:50;;;;;;;1031.40;922.35;;;;;;;;;;5013260;28;20026;-78
2021/09/30 15:41:16;;;;;;;1032.20;922.90;;;;;;;;;;5009812;28;20103;-76
2021/09/30 15:43:42;;;;;;;1032.32;922.88;;;;;;;;;;5011750;28;20754;-77
2021/09/30 15:46:08;;;;;;;1031.53;922.38;;;;;;;;;;5003494;28;20037;-77
2021/09/30 15:48:34;;;;;;;1029.70;920.47;;;;;;;;;;5004212;28;20084;-77
2021/09/30 15:51:01;;;;;;;1025.68;917.03;;;;;;;;;;5009606;28;20060;-76
2021/09/30 15:53:27;;;;;;;1034.40;924.83;;;;;;;;;;5011026;28;20476;-77
2021/09/30 15:55:53;;;;;;;1028.78;919.65;;;;;;;;;;5008744;28;20033;-78
2021/09/30 15:58:20;;;;;;;1026.93;917.90;;;;;;;;;;5017824;28;20387;-77
2021/09/30 16:00:46;;;;;;;1033.55;924.28;;;;;;;;;;5013951;28;20064;-76
2021/09/30 16:03:12;;;;;;;1031.85;922.65;;;;;;;;;;5002891;28;20030;-78
2021/09/30 16:05:39;;;;;;;1033.20;923.75;;;;;;;;;;5003993;28;20233;-76
2021/09/30 16:08:05;;;;;;;1031.28;922.22;;;;;;;;;;5006011;28;20393;-77
2021/09/30 16:10:32;;;;;;;1028.70;919.63;;;;;;;;;;5005681;28;20398;-76
2021/09/30 16:12:58;;;;;;;1035.10;925.75;;;;;;;;;;5019263;28;20350;-79
2021/09/30 16:15:24;;;;;;;1023.53;914.65;;;;;;;;;;5006974;28;20026;-76
2021/09/30 16:17:50;;;;;;;1034.63;925.28;;;;;;;;;;5006757;28;20029;-78
2021/09/30 16:20:16;;;;;;;1024.28;915.70;;;;;;;;;;5004717;28;20068;-76
2021/09/30 16:22:42;;;;;;;1023.65;914.85;;;;;;;;;;5005959;28;20030;-76
2021/09/30 16:25:09;;;;;;;1026.95;917.95;;;;;;;;;;5007365;28;20037;-77
2021/09/30 16:27:35;;;;;;;1018.97;910.15;;;;;;;;;;5003214;28;20400;-77
2021/09/30 16:30:01;;;;;;;1044.05;933.97;;;;;;;;;;5005091;28;20072;-76
2021/09/30 16:32:28;;;;;;;1034.97;925.28;;;;;;;;;;5005041;28;20552;-76
2021/09/30 16:34:54;;;;;;;1027.75;918.60;;;;;;;;;;5003991;28;20025;-76
2021/09/30 16:37:20;;;;;;;1025.72;916.58;;;;;;;;;;5005607;28;20038;-77
2021/09/30 16:39:46;;;;;;;1027.70;918.35;;;;;;;;;;5004960;28;20299;-76